Time;durP1;ratioP1;P1;durP2;ratioP2;P2;SDS_P1;SDS_P2;PMS_P1;PMS_P2;Temp;Humidity;BMP_temperature;BMP_pressure;BME280_temperature;BME280_humidity;BME280_pressure;Samples;Min_cycle;Max_cycle;Signal;HPM_P1;HPM_P2
2023/09/20 00:00:07;;;;;;;3.17;2.97;;;15.10;99.90;;;;;;5052030;28;20448;-69
2023/09/20 00:02:33;;;;;;;2.20;2.00;;;15.10;99.90;;;;;;5052373;28;20412;-68
2023/09/20 00:05:00;;;;;;;3.10;2.90;;;15.00;99.90;;;;;;5053949;28;20498;-68
2023/09/20 00:07:26;;;;;;;3.07;2.77;;;14.90;99.90;;;;;;5051541;28;20449;-69
2023/09/20 00:09:52;;;;;;;2.70;2.33;;;14.90;99.90;;;;;;5058761;28;20466;-69
2023/09/20 00:12:18;;;;;;;2.97;2.67;;;14.80;99.90;;;;;;5055914;28;20447;-69
2023/09/20 00:14:43;;;;;;;3.70;3.40;;;14.80;99.90;;;;;;5050931;28;20443;-69
2023/09/20 00:17:09;;;;;;;2.90;2.60;;;14.80;99.90;;;;;;5056328;28;20184;-70
2023/09/20 00:19:38;;;;;;;3.90;2.83;;;14.90;99.90;;;;;;5063828;28;20616;-70
2023/09/20 00:22:05;;;;;;;2.40;2.27;;;14.90;99.90;;;;;;5071989;28;20284;-69
2023/09/20 00:24:31;;;;;;;2.50;2.30;;;14.90;99.90;;;;;;5050722;28;20459;-69
2023/09/20 00:26:57;;;;;;;3.80;2.83;;;15.00;99.90;;;;;;5047766;28;20442;-69
2023/09/20 00:29:24;;;;;;;3.20;2.67;;;15.00;99.90;;;;;;5050256;28;20432;-69
2023/09/20 00:31:50;;;;;;;2.67;2.47;;;14.80;99.90;;;;;;5051769;28;20460;-69
2023/09/20 00:34:17;;;;;;;2.40;1.87;;;14.90;99.90;;;;;;5050212;28;20462;-69
2023/09/20 00:36:44;;;;;;;2.90;2.27;;;14.90;99.90;;;;;;5051394;28;20246;-69
2023/09/20 00:39:10;;;;;;;3.80;2.70;;;15.00;99.90;;;;;;5053810;28;20870;-69
2023/09/20 00:41:36;;;;;;;2.47;2.20;;;15.00;99.90;;;;;;5057393;28;20483;-69
2023/09/20 00:44:02;;;;;;;3.53;3.23;;;15.00;99.90;;;;;;5048945;28;20467;-69
2023/09/20 00:46:29;;;;;;;2.30;2.10;;;15.10;99.90;;;;;;5050211;28;20216;-69
2023/09/20 00:48:56;;;;;;;4.53;2.80;;;15.10;99.90;;;;;;5052280;28;20173;-69
2023/09/20 00:51:23;;;;;;;3.20;2.90;;;15.00;99.90;;;;;;5050616;28;20456;-70
2023/09/20 00:53:54;;;;;;;5.40;3.00;;;15.00;99.90;;;;;;5056355;28;20431;-69
2023/09/20 00:56:21;;;;;;;2.70;2.30;;;15.10;99.90;;;;;;5051084;28;20489;-70
2023/09/20 00:58:47;;;;;;;2.57;2.37;;;15.10;99.90;;;;;;5051514;28;20440;-68
2023/09/20 01:01:14;;;;;;;4.40;2.90;;;15.00;99.90;;;;;;5055046;28;21023;-69
2023/09/20 01:03:41;;;;;;;3.50;2.60;;;15.00;99.90;;;;;;5048606;28;20915;-69
2023/09/20 01:06:09;;;;;;;6.43;2.60;;;15.00;99.90;;;;;;5046944;28;20551;-69
2023/09/20 01:08:35;;;;;;;2.60;2.40;;;15.00;99.90;;;;;;5058134;28;20169;-69
2023/09/20 01:11:01;;;;;;;4.63;2.70;;;15.00;99.90;;;;;;5060980;28;20454;-69
2023/09/20 01:13:26;;;;;;;3.50;3.13;;;15.00;99.90;;;;;;5056446;28;20182;-68
2023/09/20 01:15:52;;;;;;;2.80;2.60;;;15.00;99.90;;;;;;5055765;28;20432;-69
2023/09/20 01:18:18;;;;;;;2.83;2.63;;;15.00;99.90;;;;;;5055395;28;20203;-69
2023/09/20 01:20:44;;;;;;;2.60;2.40;;;15.00;99.90;;;;;;5069048;28;20968;-69
2023/09/20 01:23:09;;;;;;;2.30;2.10;;;15.00;99.90;;;;;;5059443;28;20177;-69
2023/09/20 01:25:38;;;;;;;3.23;2.93;;;15.00;99.90;;;;;;5054237;28;20204;-69
2023/09/20 01:28:06;;;;;;;8.83;2.40;;;14.90;99.90;;;;;;5049422;28;20216;-69
2023/09/20 01:30:38;;;;;;;2.93;2.70;;;14.90;99.90;;;;;;5053314;28;20487;-69
2023/09/20 01:33:08;;;;;;;4.63;2.80;;;14.90;99.90;;;;;;5059833;28;20846;-68
2023/09/20 01:35:35;;;;;;;2.53;2.10;;;14.80;99.90;;;;;;5053813;28;20475;-69
2023/09/20 01:38:06;;;;;;;2.73;2.50;;;14.80;99.90;;;;;;5058336;28;20866;-69
2023/09/20 01:40:33;;;;;;;2.70;2.43;;;14.80;99.90;;;;;;5054909;28;20463;-70
2023/09/20 01:43:08;;;;;;;3.30;2.80;;;14.80;99.90;;;;;;5052768;28;20980;-69
2023/09/20 01:45:36;;;;;;;3.43;2.40;;;14.80;99.90;;;;;;5052162;28;20474;-69
2023/09/20 01:48:06;;;;;;;5.70;2.30;;;14.80;99.90;;;;;;5050568;28;20432;-69
2023/09/20 01:50:32;;;;;;;3.17;2.87;;;14.70;99.90;;;;;;5055217;28;20490;-69
2023/09/20 01:52:59;;;;;;;3.30;2.87;;;14.70;99.90;;;;;;5055715;28;20450;-68
2023/09/20 01:55:27;;;;;;;2.67;2.47;;;14.70;99.90;;;;;;5054633;28;20507;-69
2023/09/20 01:57:55;;;;;;;2.20;2.10;;;14.70;99.90;;;;;;5051827;28;20965;-70
2023/09/20 02:00:22;;;;;;;3.33;3.10;;;14.70;99.90;;;;;;5051682;28;20495;-69
2023/09/20 02:02:49;;;;;;;2.90;2.67;;;14.60;99.90;;;;;;5048241;28;20984;-68
2023/09/20 02:05:17;;;;;;;6.47;2.70;;;14.60;99.90;;;;;;5059037;28;20454;-68
2023/09/20 02:07:43;;;;;;;3.60;3.30;;;14.50;99.90;;;;;;5048401;28;20446;-69
2023/09/20 02:10:09;;;;;;;4.30;2.80;;;14.40;99.90;;;;;;5054107;28;20451;-69
2023/09/20 02:12:35;;;;;;;2.97;2.70;;;14.30;99.90;;;;;;5053177;28;20442;-68
2023/09/20 02:15:01;;;;;;;3.37;2.70;;;14.10;99.90;;;;;;5053061;28;20443;-69
2023/09/20 02:17:28;;;;;;;2.73;2.53;;;14.20;99.90;;;;;;5052196;28;20184;-69
2023/09/20 02:19:54;;;;;;;2.53;2.33;;;14.20;99.90;;;;;;5053699;28;20574;-69
2023/09/20 02:22:20;;;;;;;3.10;2.10;;;14.10;99.90;;;;;;5051361;28;20866;-68
2023/09/20 02:24:46;;;;;;;2.87;2.67;;;14.10;99.90;;;;;;5049837;28;20359;-68
2023/09/20 02:27:11;;;;;;;2.80;2.60;;;14.00;99.90;;;;;;5053150;28;20481;-69
2023/09/20 02:29:37;;;;;;;4.23;2.60;;;14.00;99.90;;;;;;5061820;28;20681;-69
2023/09/20 02:32:03;;;;;;;3.70;2.83;;;14.00;99.90;;;;;;5062401;28;20197;-69
2023/09/20 02:34:29;;;;;;;3.00;2.73;;;14.00;99.90;;;;;;5053385;28;20428;-69
2023/09/20 02:36:56;;;;;;;6.83;2.77;;;14.00;99.90;;;;;;5053069;28;20228;-68
2023/09/20 02:39:22;;;;;;;2.43;2.23;;;13.80;99.90;;;;;;5052349;28;20423;-69
2023/09/20 02:41:48;;;;;;;4.77;2.80;;;13.90;99.90;;;;;;5053639;28;21031;-69
2023/09/20 02:44:13;;;;;;;4.00;2.50;;;13.80;99.90;;;;;;5054063;28;20411;-69
2023/09/20 02:46:39;;;;;;;2.90;2.70;;;13.80;99.90;;;;;;5052689;28;20637;-69
2023/09/20 02:49:07;;;;;;;3.43;2.83;;;13.70;99.90;;;;;;5056580;28;20177;-69
2023/09/20 02:51:35;;;;;;;3.57;2.20;;;13.90;99.90;;;;;;5053063;28;20243;-69
2023/09/20 02:54:01;;;;;;;2.97;2.73;;;13.90;99.90;;;;;;5057982;28;20514;-69
2023/09/20 02:56:26;;;;;;;2.93;2.63;;;14.00;99.90;;;;;;5051747;28;20859;-69
2023/09/20 02:58:52;;;;;;;3.67;3.47;;;14.10;99.90;;;;;;5056897;28;20232;-69
2023/09/20 03:01:18;;;;;;;3.70;2.73;;;14.00;99.90;;;;;;5054871;28;20197;-69
2023/09/20 03:03:44;;;;;;;3.10;2.90;;;14.10;99.90;;;;;;5053040;28;20435;-69
2023/09/20 03:06:12;;;;;;;3.27;2.70;;;14.10;99.90;;;;;;5059859;28;20212;-69
2023/09/20 03:08:44;;;;;;;2.53;2.13;;;14.10;99.90;;;;;;5058531;28;20189;-69
2023/09/20 03:11:11;;;;;;;5.20;2.43;;;14.00;99.90;;;;;;5064001;28;20464;-69
2023/09/20 03:13:37;;;;;;;4.50;2.50;;;14.00;99.90;;;;;;5059733;28;20630;-70
2023/09/20 03:16:03;;;;;;;3.30;3.10;;;13.90;99.90;;;;;;5054109;28;20450;-70
2023/09/20 03:18:28;;;;;;;3.20;2.63;;;13.90;99.90;;;;;;5055973;28;20230;-69
2023/09/20 03:20:54;;;;;;;2.83;2.63;;;13.80;99.90;;;;;;5059735;28;20220;-69
2023/09/20 03:23:20;;;;;;;4.80;3.00;;;13.70;99.90;;;;;;5053645;28;20635;-69
2023/09/20 03:25:45;;;;;;;3.17;2.77;;;13.70;99.90;;;;;;5060619;28;20196;-69
2023/09/20 03:28:11;;;;;;;2.77;2.57;;;13.70;99.90;;;;;;5047568;28;20804;-68
2023/09/20 03:30:38;;;;;;;2.70;2.50;;;13.70;99.90;;;;;;5051404;28;20197;-68
2023/09/20 03:33:05;;;;;;;2.70;2.50;;;13.70;99.90;;;;;;5055236;28;20260;-69
2023/09/20 03:35:31;;;;;;;2.90;2.60;;;13.80;99.90;;;;;;5060852;28;20427;-69
2023/09/20 03:37:56;;;;;;;4.33;2.90;;;13.80;99.90;;;;;;5052383;28;20497;-69
2023/09/20 03:40:22;;;;;;;4.97;3.63;;;13.90;99.90;;;;;;5054162;28;20229;-69
2023/09/20 03:42:49;;;;;;;3.20;2.90;;;13.90;99.90;;;;;;5051809;28;20174;-69
2023/09/20 03:45:16;;;;;;;2.80;2.60;;;14.00;99.90;;;;;;5053895;28;20878;-69
2023/09/20 03:47:49;;;;;;;4.53;2.20;;;14.00;99.90;;;;;;5049666;28;20439;-69
2023/09/20 03:50:19;;;;;;;2.80;2.60;;;14.00;99.90;;;;;;5050880;28;20463;-69
2023/09/20 03:52:45;;;;;;;3.20;2.90;;;14.00;99.90;;;;;;5052731;28;20439;-69
2023/09/20 03:55:11;;;;;;;2.60;2.40;;;14.00;99.90;;;;;;5054876;28;20442;-69
2023/09/20 03:57:40;;;;;;;2.97;2.77;;;13.90;99.90;;;;;;5050881;28;20441;-69
2023/09/20 04:00:07;;;;;;;2.63;2.43;;;13.90;99.90;;;;;;5052078;28;20213;-69
2023/09/20 04:02:34;;;;;;;3.03;2.57;;;13.90;99.90;;;;;;5051418;28;20423;-69
2023/09/20 04:05:05;;;;;;;3.37;3.10;;;13.90;99.90;;;;;;5051033;28;20467;-70
2023/09/20 04:07:31;;;;;;;4.30;3.30;;;13.90;99.90;;;;;;5053126;28;20435;-69
2023/09/20 04:09:57;;;;;;;5.20;3.00;;;13.90;99.90;;;;;;5060155;28;20951;-69
2023/09/20 04:12:23;;;;;;;2.40;2.20;;;14.00;99.90;;;;;;5064171;28;20193;-69
2023/09/20 04:14:51;;;;;;;3.10;2.90;;;13.90;99.90;;;;;;5072428;28;20165;-70
2023/09/20 04:17:17;;;;;;;3.27;2.97;;;13.90;99.90;;;;;;5072769;28;20411;-68
2023/09/20 04:19:42;;;;;;;5.80;3.00;;;13.90;99.90;;;;;;5066530;28;20699;-69
2023/09/20 04:22:10;;;;;;;3.23;2.93;;;13.90;99.90;;;;;;5061846;28;20177;-69
2023/09/20 04:24:36;;;;;;;3.20;2.90;;;13.90;99.90;;;;;;5051388;28;20197;-69
2023/09/20 04:27:02;;;;;;;3.20;2.80;;;13.80;99.90;;;;;;5050468;28;20443;-69
2023/09/20 04:29:29;;;;;;;4.20;2.97;;;13.70;99.90;;;;;;5057579;28;20557;-68
2023/09/20 04:31:55;;;;;;;3.97;3.00;;;13.70;99.90;;;;;;5064325;28;20431;-69
2023/09/20 04:34:21;;;;;;;3.37;2.90;;;13.60;99.90;;;;;;5072566;28;20454;-69
2023/09/20 04:36:47;;;;;;;3.13;2.80;;;13.60;99.90;;;;;;5065212;28;20451;-69
2023/09/20 04:39:14;;;;;;;3.27;2.60;;;13.60;99.90;;;;;;5056329;28;20443;-69
2023/09/20 04:41:40;;;;;;;4.10;3.80;;;13.60;99.90;;;;;;5051681;28;20189;-69
2023/09/20 04:44:06;;;;;;;5.30;3.83;;;13.50;99.90;;;;;;5047194;28;20448;-69
2023/09/20 04:46:35;;;;;;;3.87;3.57;;;13.50;99.90;;;;;;5051605;28;20471;-68
2023/09/20 04:49:00;;;;;;;6.90;3.00;;;13.40;99.90;;;;;;5053907;28;20292;-69
2023/09/20 04:51:26;;;;;;;3.87;3.23;;;13.40;99.90;;;;;;5062250;28;20524;-69
2023/09/20 04:53:52;;;;;;;3.77;3.50;;;13.30;99.90;;;;;;5069988;28;20642;-70
2023/09/20 04:56:17;;;;;;;4.80;3.07;;;13.40;99.90;;;;;;5065006;28;20184;-69
2023/09/20 04:58:43;;;;;;;2.73;2.53;;;13.40;99.90;;;;;;5066058;28;20448;-69
2023/09/20 05:01:14;;;;;;;4.40;3.30;;;13.30;99.90;;;;;;5045881;28;20748;-69
2023/09/20 05:03:40;;;;;;;3.67;3.33;;;13.40;99.90;;;;;;5056435;28;20219;-69
2023/09/20 05:06:06;;;;;;;3.27;3.00;;;13.40;99.90;;;;;;5059799;28;20471;-69
2023/09/20 05:08:32;;;;;;;3.60;2.10;;;13.40;99.90;;;;;;5049220;28;20211;-69
2023/09/20 05:10:57;;;;;;;7.30;3.13;;;13.40;99.90;;;;;;5057434;28;20466;-69
2023/09/20 05:13:23;;;;;;;4.17;3.27;;;13.40;99.90;;;;;;5053248;28;20174;-69
2023/09/20 05:15:50;;;;;;;3.13;2.53;;;13.40;99.90;;;;;;5053887;28;20178;-69
2023/09/20 05:18:16;;;;;;;3.80;3.17;;;13.50;99.90;;;;;;5058700;28;20216;-69
2023/09/20 05:20:44;;;;;;;3.20;2.83;;;13.50;99.90;;;;;;5062028;28;20505;-69
2023/09/20 05:23:11;;;;;;;3.43;3.13;;;13.60;99.90;;;;;;5060043;28;20597;-69
2023/09/20 05:25:36;;;;;;;2.60;2.40;;;13.70;99.90;;;;;;5062808;28;20482;-69
2023/09/20 05:28:02;;;;;;;3.70;3.33;;;13.80;99.90;;;;;;5064008;28;20463;-69
2023/09/20 05:30:28;;;;;;;3.00;2.70;;;13.90;99.90;;;;;;5052554;28;20189;-69
2023/09/20 05:32:53;;;;;;;3.90;3.50;;;13.90;99.90;;;;;;5055573;28;20434;-69
2023/09/20 05:35:19;;;;;;;5.37;4.20;;;13.90;99.90;;;;;;5053200;28;20795;-69
2023/09/20 05:37:45;;;;;;;4.67;3.57;;;13.90;99.90;;;;;;5051272;28;20538;-69
2023/09/20 05:40:17;;;;;;;5.50;3.73;;;13.70;99.90;;;;;;5056193;28;20971;-69
2023/09/20 05:42:50;;;;;;;4.10;3.70;;;14.00;99.90;;;;;;5051459;28;20189;-69
2023/09/20 05:45:16;;;;;;;4.43;3.37;;;14.10;99.90;;;;;;5049718;28;20820;-69
2023/09/20 05:47:43;;;;;;;4.77;4.37;;;14.40;99.90;;;;;;5057938;28;20439;-69
2023/09/20 05:50:13;;;;;;;3.30;2.97;;;14.60;99.90;;;;;;5047007;28;20452;-69
2023/09/20 05:52:43;;;;;;;2.60;2.40;;;14.70;99.90;;;;;;5044151;28;20438;-69
2023/09/20 05:55:13;;;;;;;5.23;2.97;;;14.80;99.90;;;;;;5052865;28;20446;-69
2023/09/20 05:57:43;;;;;;;3.00;2.70;;;14.90;99.90;;;;;;5052859;28;20439;-69
2023/09/20 06:00:16;;;;;;;4.27;3.17;;;15.10;99.90;;;;;;5063977;28;20470;-70
2023/09/20 06:02:42;;;;;;;5.13;3.00;;;15.10;99.90;;;;;;5050417;28;20436;-70
2023/09/20 06:05:10;;;;;;;4.37;2.70;;;15.30;99.90;;;;;;5054102;28;20458;-69
2023/09/20 06:07:35;;;;;;;5.80;3.00;;;15.40;99.90;;;;;;5061614;28;20428;-70
2023/09/20 06:10:01;;;;;;;3.07;2.77;;;15.60;99.90;;;;;;5053069;28;20472;-70
2023/09/20 06:12:29;;;;;;;5.70;3.37;;;15.70;99.90;;;;;;5051612;28;20198;-70
2023/09/20 06:14:54;;;;;;;5.80;3.07;;;15.80;99.90;;;;;;5059643;28;20457;-69
2023/09/20 06:17:20;;;;;;;5.83;3.23;;;16.10;99.90;;;;;;5056208;28;20420;-70
2023/09/20 06:19:46;;;;;;;3.27;2.90;;;16.40;99.90;;;;;;5068411;28;20177;-70
2023/09/20 06:22:13;;;;;;;3.50;3.20;;;16.50;99.90;;;;;;5057941;28;20252;-70
2023/09/20 06:24:38;;;;;;;2.43;2.23;;;16.80;99.90;;;;;;5053878;28;20197;-70
2023/09/20 06:27:04;;;;;;;9.53;3.93;;;17.00;99.90;;;;;;5052321;28;20843;-70
2023/09/20 06:29:29;;;;;;;2.93;2.73;;;17.10;99.90;;;;;;5050560;28;20177;-70
2023/09/20 06:31:55;;;;;;;3.30;3.00;;;17.50;99.90;;;;;;5059876;28;20276;-70
2023/09/20 06:34:24;;;;;;;2.87;2.37;;;17.80;99.90;;;;;;5052353;28;20177;-70
2023/09/20 06:36:51;;;;;;;2.47;2.27;;;18.10;99.90;;;;;;5058649;28;20201;-70
2023/09/20 06:39:18;;;;;;;3.97;2.60;;;18.40;99.90;;;;;;5056971;28;20475;-70
2023/09/20 06:41:44;;;;;;;3.77;2.50;;;18.70;99.90;;;;;;5055019;28;20490;-70
2023/09/20 06:44:12;;;;;;;2.40;2.20;;;18.80;99.90;;;;;;5062991;28;20466;-70
2023/09/20 06:46:41;;;;;;;2.93;2.73;;;18.60;99.90;;;;;;5051493;28;21751;-70
2023/09/20 06:49:08;;;;;;;6.70;3.07;;;18.30;99.90;;;;;;5053965;28;20432;-70
2023/09/20 06:51:34;;;;;;;3.10;2.70;;;18.10;99.90;;;;;;5069006;28;20458;-70
2023/09/20 06:53:59;;;;;;;3.77;2.47;;;18.00;99.90;;;;;;5064189;28;20435;-70
2023/09/20 06:56:25;;;;;;;2.57;2.30;;;18.00;99.90;;;;;;5053079;28;20189;-70
2023/09/20 06:58:53;;;;;;;2.83;2.60;;;18.00;99.90;;;;;;5064320;28;20603;-70
2023/09/20 07:01:19;;;;;;;2.30;1.80;;;17.90;99.90;;;;;;5062216;28;20514;-70
2023/09/20 07:03:45;;;;;;;3.57;2.43;;;18.00;99.90;;;;;;5050064;28;20444;-70
2023/09/20 07:06:11;;;;;;;3.77;2.33;;;18.10;99.90;;;;;;5056612;28;20694;-70
2023/09/20 07:08:37;;;;;;;1.80;1.70;;;18.30;99.90;;;;;;5066197;28;20462;-70
2023/09/20 07:11:04;;;;;;;5.43;2.60;;;18.50;99.90;;;;;;5052885;28;21031;-70
2023/09/20 07:13:32;;;;;;;2.37;2.17;;;18.90;99.90;;;;;;5051563;28;20176;-70
2023/09/20 07:15:59;;;;;;;3.90;2.87;;;19.50;99.90;;;;;;5060068;28;20449;-70
2023/09/20 07:18:25;;;;;;;3.27;2.70;;;20.00;99.90;;;;;;5055062;28;21033;-70
2023/09/20 07:20:54;;;;;;;2.53;2.10;;;20.40;99.90;;;;;;5048992;28;20464;-70
2023/09/20 07:23:20;;;;;;;3.33;2.33;;;20.50;99.90;;;;;;5052681;28;20420;-70
2023/09/20 07:25:49;;;;;;;2.43;2.10;;;21.00;99.90;;;;;;5056794;28;20451;-70
2023/09/20 07:28:16;;;;;;;3.00;2.67;;;20.60;99.90;;;;;;5055212;28;20436;-70
2023/09/20 07:30:45;;;;;;;2.77;1.97;;;20.10;99.90;;;;;;5049745;28;20560;-70
2023/09/20 07:33:12;;;;;;;2.47;2.27;;;19.90;99.90;;;;;;5049559;28;20504;-70
2023/09/20 07:35:52;;;;;;;3.20;2.23;;;19.80;99.90;;;;;;5049930;28;20440;-71
2023/09/20 07:38:20;;;;;;;2.83;2.63;;;19.70;99.90;;;;;;5052301;28;20435;-70
2023/09/20 07:40:50;;;;;;;2.57;2.37;;;19.40;99.90;;;;;;5051407;28;20460;-70
2023/09/20 07:43:18;;;;;;;3.43;2.27;;;19.40;99.90;;;;;;5062101;28;20523;-70
2023/09/20 07:45:44;;;;;;;3.37;2.67;;;19.50;99.90;;;;;;5068882;28;21050;-70
2023/09/20 07:48:16;;;;;;;2.87;2.27;;;19.60;99.90;;;;;;5058339;28;20427;-70
2023/09/20 07:50:49;;;;;;;2.77;2.57;;;20.10;99.90;;;;;;5059253;28;20458;-70
2023/09/20 07:53:16;;;;;;;2.70;2.50;;;20.80;99.90;;;;;;5057639;28;20997;-70
2023/09/20 07:55:44;;;;;;;2.27;2.10;;;21.50;99.90;;;;;;5054108;28;20435;-70
2023/09/20 07:58:10;;;;;;;2.40;2.20;;;22.10;99.90;;;;;;5068279;28;20932;-71
2023/09/20 08:00:44;;;;;;;2.17;1.97;;;22.70;99.90;;;;;;5051662;28;20543;-71
2023/09/20 08:03:11;;;;;;;2.23;2.03;;;23.10;99.90;;;;;;5056654;28;20450;-68
2023/09/20 08:05:37;;;;;;;3.40;1.93;;;23.30;99.90;;;;;;5051411;28;20448;-69
2023/09/20 08:08:06;;;;;;;11.90;2.30;;;23.80;99.90;;;;;;5048768;28;20439;-68
2023/09/20 08:10:33;;;;;;;3.03;2.10;;;24.10;99.90;;;;;;5057278;28;20837;-69
2023/09/20 08:12:59;;;;;;;3.90;2.57;;;24.00;99.90;;;;;;5053217;28;20780;-69
2023/09/20 08:15:24;;;;;;;2.20;2.00;;;24.20;99.90;;;;;;5053716;28;20582;-68
2023/09/20 08:20:37;;;;;;;2.70;2.50;;;25.00;98.00;;;;;;5051601;28;20622;-69
2023/09/20 09:01:35;;;;;;;3.00;2.10;;;25.40;91.30;;;;;;5050158;28;21025;-69
2023/09/20 09:04:02;;;;;;;2.30;2.10;;;25.50;90.70;;;;;;5059391;28;20569;-69
2023/09/20 09:06:28;;;;;;;2.80;2.13;;;26.20;90.00;;;;;;5065498;28;20464;-68
2023/09/20 09:08:54;;;;;;;2.60;2.33;;;26.30;86.90;;;;;;5060446;28;20455;-69
2023/09/20 09:11:19;;;;;;;2.70;2.50;;;26.60;85.40;;;;;;5055697;28;20471;-69
2023/09/20 09:13:45;;;;;;;2.63;2.43;;;28.20;82.00;;;;;;5049395;28;20188;-67
2023/09/20 09:16:15;;;;;;;2.83;2.07;;;28.00;76.70;;;;;;5050364;28;20186;-66
2023/09/20 09:18:41;;;;;;;2.40;1.90;;;27.90;76.40;;;;;;5051580;28;20176;-69
2023/09/20 09:21:07;;;;;;;4.30;2.30;;;27.70;75.40;;;;;;5058988;28;20968;-69
2023/09/20 09:23:35;;;;;;;2.20;2.00;;;27.10;76.40;;;;;;5065354;28;20431;-70
2023/09/20 09:26:01;;;;;;;2.30;2.10;;;27.00;76.90;;;;;;5062011;28;20905;-70
2023/09/20 09:28:26;;;;;;;2.07;1.97;;;28.60;75.00;;;;;;5057659;28;20518;-70
2023/09/20 09:30:54;;;;;;;2.57;2.27;;;30.10;68.50;;;;;;5059885;28;20236;-66
2023/09/20 09:33:20;;;;;;;2.50;2.30;;;29.60;64.80;;;;;;5059223;28;20209;-67
2023/09/20 09:35:48;;;;;;;2.30;2.10;;;30.80;62.20;;;;;;5053489;28;20463;-67
2023/09/20 09:38:20;;;;;;;3.20;2.90;;;31.00;57.40;;;;;;5059937;28;20676;-66
2023/09/20 09:40:58;;;;;;;2.23;2.03;;;31.20;55.10;;;;;;5057292;28;20456;-66
2023/09/20 09:43:25;;;;;;;2.50;2.30;;;31.60;53.90;;;;;;5051250;28;20488;-67
2023/09/20 09:45:54;;;;;;;2.77;2.57;;;31.70;52.60;;;;;;5053372;28;20467;-68
2023/09/20 09:48:22;;;;;;;2.60;2.40;;;32.50;50.50;;;;;;5051354;28;20440;-66
2023/09/20 09:50:49;;;;;;;2.50;2.30;;;32.10;49.30;;;;;;5058214;28;20467;-66
2023/09/20 09:53:15;;;;;;;3.37;3.10;;;31.90;49.20;;;;;;5050961;28;20443;-66
2023/09/20 09:55:41;;;;;;;2.67;2.47;;;31.60;48.50;;;;;;5058211;28;20866;-67
2023/09/20 09:58:09;;;;;;;3.10;2.90;;;31.20;48.40;;;;;;5054352;28;20434;-70
2023/09/20 10:00:36;;;;;;;2.77;2.20;;;30.90;49.00;;;;;;5052348;28;20460;-70
2023/09/20 10:03:24;;;;;;;2.60;2.37;;;30.30;48.50;;;;;;5053894;28;20921;-67
2023/09/20 10:05:56;;;;;;;3.63;2.43;;;31.20;49.20;;;;;;5046722;28;20462;-66
2023/09/20 10:08:28;;;;;;;2.50;2.37;;;33.10;46.90;;;;;;5050985;28;20463;-66
2023/09/20 10:10:55;;;;;;;3.10;2.80;;;33.80;45.90;;;;;;5025208;28;1033815;-66
2023/09/20 10:13:21;;;;;;;2.80;2.60;;;33.80;44.00;;;;;;5062357;28;20173;-67
2023/09/20 10:15:49;;;;;;;3.40;2.70;;;32.80;43.70;;;;;;5044056;28;20529;-67
2023/09/20 10:18:16;;;;;;;2.37;2.17;;;32.50;44.70;;;;;;5053678;28;20431;-66
2023/09/20 10:21:04;;;;;;;2.80;2.60;;;32.20;44.80;;;;;;5054004;28;20446;-66
2023/09/20 10:23:34;;;;;;;2.80;2.47;;;32.80;43.80;;;;;;5053925;28;20415;-67
2023/09/20 10:26:00;;;;;;;2.60;2.40;;;33.20;44.20;;;;;;5053995;28;20547;-67
2023/09/20 10:28:31;;;;;;;4.67;2.57;;;33.50;42.70;;;;;;5053983;28;20416;-66
2023/09/20 10:31:02;;;;;;;3.73;3.43;;;33.60;42.90;;;;;;5053805;28;20420;-67
2023/09/20 10:33:45;;;;;;;2.93;2.73;;;35.60;43.80;;;;;;5049607;28;20455;-65
2023/09/20 10:36:13;;;;;;;3.07;2.73;;;35.70;41.50;;;;;;5051624;28;20513;-66
2023/09/20 10:38:44;;;;;;;3.10;2.70;;;35.30;40.50;;;;;;5049550;28;20828;-67
2023/09/20 10:41:12;;;;;;;2.60;2.40;;;34.80;39.70;;;;;;5065031;28;20592;-67
2023/09/20 10:43:37;;;;;;;3.30;3.00;;;33.60;40.30;;;;;;5061530;28;20465;-67
2023/09/20 10:46:12;;;;;;;3.90;3.40;;;32.60;41.10;;;;;;5059240;28;20455;-66
2023/09/20 10:48:44;;;;;;;3.73;3.13;;;33.80;41.50;;;;;;5063025;28;20181;-66
2023/09/20 10:51:10;;;;;;;4.00;3.70;;;34.40;38.90;;;;;;5056492;28;20816;-65
2023/09/20 10:53:42;;;;;;;3.33;3.13;;;34.50;39.70;;;;;;5056000;28;20432;-66
2023/09/20 10:56:09;;;;;;;3.00;2.80;;;34.90;38.90;;;;;;5055451;28;20949;-66
2023/09/20 10:58:36;;;;;;;3.10;2.90;;;33.70;39.50;;;;;;5053397;28;20438;-66
2023/09/20 11:01:03;;;;;;;7.97;3.07;;;34.10;39.20;;;;;;5063787;28;20487;-66
2023/09/20 11:03:29;;;;;;;3.00;2.80;;;34.40;38.50;;;;;;5060744;28;20435;-66
2023/09/20 11:05:55;;;;;;;2.93;2.73;;;36.10;36.90;;;;;;5050209;28;20464;-65
2023/09/20 11:08:23;;;;;;;3.27;3.07;;;36.80;36.20;;;;;;5054814;28;20862;-66
2023/09/20 11:10:49;;;;;;;3.33;3.10;;;36.30;35.50;;;;;;5064032;28;20828;-66
2023/09/20 11:13:15;;;;;;;3.27;2.40;;;36.00;35.20;;;;;;5056066;28;20424;-67
2023/09/20 11:15:43;;;;;;;2.93;2.73;;;36.10;35.70;;;;;;5049513;28;20201;-66
2023/09/20 11:18:09;;;;;;;4.70;3.33;;;35.20;36.00;;;;;;5047950;28;20436;-65
2023/09/20 11:20:36;;;;;;;3.83;3.53;;;35.30;36.70;;;;;;5049472;28;20456;-67
2023/09/20 11:23:04;;;;;;;3.30;3.00;;;36.10;36.00;;;;;;5051322;28;20513;-67
2023/09/20 11:25:30;;;;;;;3.03;2.83;;;36.30;36.20;;;;;;5067479;28;20455;-65
2023/09/20 11:27:56;;;;;;;2.83;2.63;;;36.10;36.30;;;;;;5059551;28;20447;-67
2023/09/20 11:30:27;;;;;;;3.00;2.80;;;35.40;36.90;;;;;;5057485;28;20205;-67
2023/09/20 11:32:53;;;;;;;3.00;2.70;;;35.50;36.70;;;;;;5055944;28;20475;-66
2023/09/20 11:35:37;;;;;;;3.10;2.80;;;36.50;35.90;;;;;;5065436;28;20449;-67
2023/09/20 11:38:07;;;;;;;2.63;2.43;;;37.40;34.90;;;;;;5056099;28;20442;-67
2023/09/20 11:40:36;;;;;;;2.43;2.30;;;37.20;34.90;;;;;;5049720;28;20458;-67
2023/09/20 11:43:09;;;;;;;2.73;2.40;;;36.50;35.50;;;;;;5056006;28;20678;-68
2023/09/20 11:45:38;;;;;;;3.13;2.53;;;36.80;35.60;;;;;;5059363;28;20533;-68
2023/09/20 11:48:12;;;;;;;2.20;2.00;;;37.10;36.00;;;;;;5053716;28;20519;-68
2023/09/20 11:50:42;;;;;;;2.43;2.20;;;37.60;35.60;;;;;;5053718;28;20493;-67
2023/09/20 11:53:15;;;;;;;2.50;2.30;;;38.60;35.40;;;;;;5065051;28;20480;-68
2023/09/20 11:55:45;;;;;;;2.83;2.50;;;39.40;38.10;;;;;;5062175;28;20454;-65
2023/09/20 11:58:10;;;;;;;2.87;2.07;;;39.90;38.00;;;;;;5051356;28;20900;-66
2023/09/20 12:00:36;;;;;;;2.33;2.07;;;41.00;38.70;;;;;;5056226;28;20529;-67
2023/09/20 12:03:03;;;;;;;2.17;2.07;;;38.70;38.20;;;;;;5063227;28;20193;-67
2023/09/20 12:05:28;;;;;;;2.40;2.30;;;40.20;37.80;;;;;;5055369;28;20503;-67
2023/09/20 12:07:56;;;;;;;2.67;2.40;;;40.30;36.60;;;;;;5050196;28;20484;-66
2023/09/20 12:10:22;;;;;;;2.10;1.90;;;38.50;37.70;;;;;;5054079;28;20684;-66
2023/09/20 12:12:51;;;;;;;2.03;1.93;;;37.40;38.40;;;;;;5064187;28;20504;-67
2023/09/20 12:15:17;;;;;;;2.43;2.10;;;38.60;37.60;;;;;;5049463;28;20432;-65
2023/09/20 12:17:42;;;;;;;1.90;1.80;;;39.40;36.50;;;;;;5054980;28;20768;-67
2023/09/20 12:20:10;;;;;;;1.93;1.83;;;40.70;35.50;;;;;;5048333;28;20986;-66
2023/09/20 12:22:38;;;;;;;2.80;2.10;;;41.50;36.40;;;;;;5050774;28;20181;-67
2023/09/20 12:25:06;;;;;;;2.23;2.13;;;40.20;37.50;;;;;;5048684;28;20470;-67
2023/09/20 12:27:32;;;;;;;2.13;2.03;;;38.60;37.60;;;;;;5062495;28;20484;-67
2023/09/20 12:29:58;;;;;;;2.20;2.03;;;38.00;38.20;;;;;;5070012;28;20794;-66
2023/09/20 12:32:24;;;;;;;2.10;1.90;;;39.80;36.30;;;;;;5051730;28;20420;-67
2023/09/20 12:34:51;;;;;;;2.40;2.17;;;42.20;36.30;;;;;;5051431;28;20322;-67
2023/09/20 12:37:19;;;;;;;2.77;2.50;;;43.20;34.30;;;;;;5048482;28;20169;-66
2023/09/20 12:39:46;;;;;;;6.20;5.63;;;41.20;34.00;;;;;;5051695;28;21008;-68
2023/09/20 12:42:13;;;;;;;4.37;4.07;;;42.40;33.20;;;;;;5051621;28;20431;-66
2023/09/20 12:44:38;;;;;;;2.37;2.23;;;42.70;32.40;;;;;;5051424;28;20416;-66
2023/09/20 12:47:04;;;;;;;3.00;2.27;;;41.90;30.70;;;;;;5051749;28;20893;-66
2023/09/20 12:49:29;;;;;;;2.20;2.10;;;40.30;30.60;;;;;;5051273;28;20269;-67
2023/09/20 12:51:55;;;;;;;2.13;2.03;;;39.00;32.00;;;;;;5050600;28;20205;-67
2023/09/20 12:54:20;;;;;;;5.17;2.00;;;39.80;31.70;;;;;;5049546;28;20201;-66
2023/09/20 12:56:46;;;;;;;1.77;1.67;;;40.20;31.60;;;;;;5048557;28;20604;-67
2023/09/20 12:59:13;;;;;;;3.00;2.70;;;39.50;31.80;;;;;;5051390;28;20256;-67
2023/09/20 13:01:38;;;;;;;2.30;2.20;;;39.00;31.70;;;;;;5051452;28;20435;-68
2023/09/20 13:04:04;;;;;;;2.23;2.03;;;38.30;32.30;;;;;;5053769;28;20428;-66
2023/09/20 13:06:32;;;;;;;2.10;2.00;;;38.30;32.30;;;;;;5055189;28;20205;-66
2023/09/20 13:08:58;;;;;;;2.20;2.10;;;41.00;31.00;;;;;;5054200;28;20193;-66
2023/09/20 13:11:23;;;;;;;2.20;2.10;;;42.60;29.60;;;;;;5051050;28;20529;-67
2023/09/20 13:13:49;;;;;;;1.80;1.70;;;41.40;30.00;;;;;;5055108;28;20208;-67
2023/09/20 13:16:16;;;;;;;2.20;2.03;;;41.20;30.00;;;;;;5051240;28;20174;-67
2023/09/20 13:18:43;;;;;;;2.30;2.20;;;40.60;30.20;;;;;;5055015;28;20420;-67
2023/09/20 13:21:09;;;;;;;2.20;2.00;;;39.90;30.80;;;;;;5055496;28;20443;-66
2023/09/20 13:23:35;;;;;;;2.87;2.67;;;41.30;30.40;;;;;;5054813;28;20451;-67
2023/09/20 13:26:03;;;;;;;2.13;1.90;;;42.00;30.00;;;;;;5055298;28;20220;-67